Time;durP1;ratioP1;P1;durP2;ratioP2;P2;SDS_P1;SDS_P2;PMS_P1;PMS_P2;Temp;Humidity;BMP_temperature;BMP_pressure;BME280_temperature;BME280_humidity;BME280_pressure;Samples;Min_cycle;Max_cycle;Signal;HPM_P1;HPM_P2
2021/07/13 00:01:05;;;;;;;5.30;3.15;;;;;;;;;;6228858;23;20179;-88
2021/07/13 00:04:12;;;;;;;7.63;2.83;;;;;;;;;;6230221;23;20175;-89
2021/07/13 00:07:17;;;;;;;8.25;3.20;;;;;;;;;;6228324;23;20224;-88
2021/07/13 00:10:24;;;;;;;6.38;3.22;;;;;;;;;;6229324;23;20151;-88
2021/07/13 00:13:30;;;;;;;8.02;3.47;;;;;;;;;;6229766;23;20255;-89
2021/07/13 00:16:35;;;;;;;4.72;3.08;;;;;;;;;;6230129;23;20191;-88
2021/07/13 00:19:41;;;;;;;6.05;2.90;;;;;;;;;;6228894;23;20171;-89
2021/07/13 00:22:47;;;;;;;8.32;2.90;;;;;;;;;;6230101;23;20277;-89
2021/07/13 00:25:53;;;;;;;5.00;2.80;;;;;;;;;;6248976;23;20171;-88
2021/07/13 00:28:58;;;;;;;6.57;2.72;;;;;;;;;;6228599;23;20167;-89
2021/07/13 00:32:03;;;;;;;5.60;2.72;;;;;;;;;;6229869;23;20223;-87
2021/07/13 00:35:10;;;;;;;9.50;2.80;;;;;;;;;;6229989;23;20163;-88
2021/07/13 00:38:18;;;;;;;8.60;2.85;;;;;;;;;;6229314;23;20610;-87
2021/07/13 00:41:25;;;;;;;5.32;3.08;;;;;;;;;;6228830;23;20154;-87
2021/07/13 00:44:30;;;;;;;6.88;2.92;;;;;;;;;;6230463;23;20179;-88
2021/07/13 00:47:35;;;;;;;7.93;2.95;;;;;;;;;;6228639;23;20167;-89
2021/07/13 00:50:44;;;;;;;7.85;2.97;;;;;;;;;;6226892;23;20291;-88
2021/07/13 00:53:49;;;;;;;6.50;2.90;;;;;;;;;;6246633;23;20236;-89
2021/07/13 00:56:56;;;;;;;8.13;3.03;;;;;;;;;;6228081;23;20160;-88
2021/07/13 01:00:01;;;;;;;7.38;2.83;;;;;;;;;;6229908;23;20167;-87
2021/07/13 01:03:07;;;;;;;5.72;3.20;;;;;;;;;;6247045;23;20524;-88
2021/07/13 01:06:16;;;;;;;4.70;3.00;;;;;;;;;;6228428;23;20175;-88
2021/07/13 01:09:26;;;;;;;7.78;3.03;;;;;;;;;;6245713;22;20183;-89
2021/07/13 01:12:36;;;;;;;7.57;3.30;;;;;;;;;;6226963;23;20172;-89
2021/07/13 01:15:47;;;;;;;5.95;2.88;;;;;;;;;;6229170;23;20198;-88
2021/07/13 01:18:56;;;;;;;7.28;3.40;;;;;;;;;;6245208;23;20166;-89
2021/07/13 01:22:04;;;;;;;7.72;3.40;;;;;;;;;;6230629;23;20232;-90
2021/07/13 01:25:12;;;;;;;7.90;3.10;;;;;;;;;;6231934;23;20250;-88
2021/07/13 01:28:19;;;;;;;6.43;3.00;;;;;;;;;;6231661;23;20220;-89
2021/07/13 01:31:26;;;;;;;4.68;3.45;;;;;;;;;;6230109;23;20171;-88
2021/07/13 01:34:34;;;;;;;9.95;2.90;;;;;;;;;;6228757;23;20242;-89
2021/07/13 01:37:40;;;;;;;9.30;3.05;;;;;;;;;;6230430;23;20178;-90
2021/07/13 01:40:46;;;;;;;9.43;3.15;;;;;;;;;;6228413;23;20168;-89
2021/07/13 01:43:54;;;;;;;11.07;3.35;;;;;;;;;;6229462;23;20226;-89
2021/07/13 01:46:59;;;;;;;5.78;3.35;;;;;;;;;;6227872;23;20168;-89
2021/07/13 01:50:05;;;;;;;6.75;3.47;;;;;;;;;;6231168;23;20218;-88
2021/07/13 01:53:12;;;;;;;8.60;3.80;;;;;;;;;;6231600;23;20179;-90
2021/07/13 01:56:17;;;;;;;8.25;3.50;;;;;;;;;;6231072;23;20167;-89
2021/07/13 01:59:25;;;;;;;7.18;3.58;;;;;;;;;;6228917;23;20499;-89
2021/07/13 02:02:31;;;;;;;5.85;3.03;;;;;;;;;;6228750;23;20194;-88
2021/07/13 02:05:38;;;;;;;4.78;3.03;;;;;;;;;;6230498;23;20176;-87
2021/07/13 02:08:43;;;;;;;7.80;3.22;;;;;;;;;;6232077;23;20171;-88
2021/07/13 02:11:50;;;;;;;7.28;2.92;;;;;;;;;;6231056;23;20222;-87
2021/07/13 02:14:56;;;;;;;10.57;3.22;;;;;;;;;;6230310;23;20283;-88
2021/07/13 02:18:01;;;;;;;7.93;3.47;;;;;;;;;;6228814;23;20171;-88
2021/07/13 02:21:09;;;;;;;7.32;3.38;;;;;;;;;;6228803;23;20167;-88
2021/07/13 02:24:14;;;;;;;9.82;3.65;;;;;;;;;;6229581;23;20195;-88
2021/07/13 02:27:19;;;;;;;6.10;3.50;;;;;;;;;;6228428;23;20179;-88
2021/07/13 02:30:26;;;;;;;10.02;4.65;;;;;;;;;;6229035;23;20226;-88
2021/07/13 02:33:35;;;;;;;12.00;4.72;;;;;;;;;;6228654;23;20173;-87
2021/07/13 02:36:45;;;;;;;6.80;3.53;;;;;;;;;;6230158;23;20190;-88
2021/07/13 02:39:50;;;;;;;8.82;3.67;;;;;;;;;;6229274;23;20215;-87
2021/07/13 02:42:55;;;;;;;10.70;4.28;;;;;;;;;;6231412;23;20524;-88
2021/07/13 02:46:02;;;;;;;6.07;3.70;;;;;;;;;;6229645;23;20248;-87
2021/07/13 02:49:07;;;;;;;10.77;4.03;;;;;;;;;;6228377;23;20166;-88
2021/07/13 02:52:13;;;;;;;8.63;3.78;;;;;;;;;;6231080;23;20243;-88
2021/07/13 02:55:20;;;;;;;6.95;3.58;;;;;;;;;;6229278;23;20176;-88
2021/07/13 02:58:26;;;;;;;10.80;3.63;;;;;;;;;;6228841;23;20180;-89
2021/07/13 03:01:33;;;;;;;8.98;3.85;;;;;;;;;;6226212;23;20187;-88
2021/07/13 03:04:39;;;;;;;10.50;4.43;;;;;;;;;;6228495;23;20207;-88
2021/07/13 03:07:44;;;;;;;8.93;4.10;;;;;;;;;;6230520;23;20171;-87
2021/07/13 03:10:50;;;;;;;5.47;3.80;;;;;;;;;;6227968;23;20162;-89
2021/07/13 03:13:55;;;;;;;6.80;3.58;;;;;;;;;;6229309;23;20298;-88
2021/07/13 03:17:02;;;;;;;7.82;4.00;;;;;;;;;;6229030;23;20301;-89
2021/07/13 03:20:08;;;;;;;8.35;3.72;;;;;;;;;;6229438;23;20158;-88
2021/07/13 03:23:15;;;;;;;7.88;3.80;;;;;;;;;;6228508;23;20201;-88
2021/07/13 03:26:21;;;;;;;10.40;3.88;;;;;;;;;;6229949;23;20242;-87
2021/07/13 03:29:27;;;;;;;8.98;3.70;;;;;;;;;;6228739;23;20238;-88
2021/07/13 03:32:36;;;;;;;6.28;3.85;;;;;;;;;;6229853;23;20169;-88
2021/07/13 03:35:42;;;;;;;5.00;3.75;;;;;;;;;;6229089;23;20204;-88
2021/07/13 03:38:47;;;;;;;11.27;3.70;;;;;;;;;;6231021;23;20171;-89
2021/07/13 03:41:54;;;;;;;11.32;3.72;;;;;;;;;;6230439;23;20167;-88
2021/07/13 03:44:59;;;;;;;9.73;3.97;;;;;;;;;;6228245;23;20167;-88
2021/07/13 03:48:07;;;;;;;9.40;3.75;;;;;;;;;;6229145;23;20167;-88
2021/07/13 03:51:18;;;;;;;9.40;3.60;;;;;;;;;;6229306;23;20142;-88
2021/07/13 03:54:23;;;;;;;8.93;3.65;;;;;;;;;;6230043;23;20171;-88
2021/07/13 03:57:28;;;;;;;6.72;4.18;;;;;;;;;;6230934;23;20171;-89
2021/07/13 04:00:33;;;;;;;7.97;3.85;;;;;;;;;;6231229;23;20275;-87
2021/07/13 04:03:40;;;;;;;6.28;4.40;;;;;;;;;;6231065;23;20214;-89
2021/07/13 04:06:45;;;;;;;6.97;3.95;;;;;;;;;;6228469;23;20168;-89
2021/07/13 04:09:50;;;;;;;9.35;4.68;;;;;;;;;;6227104;23;20218;-88
2021/07/13 04:12:55;;;;;;;12.50;5.03;;;;;;;;;;6230247;23;20171;-88
2021/07/13 04:16:01;;;;;;;10.88;4.57;;;;;;;;;;6228490;23;20207;-89
2021/07/13 04:19:08;;;;;;;8.88;4.70;;;;;;;;;;6227829;23;20171;-90
2021/07/13 04:22:13;;;;;;;9.45;4.63;;;;;;;;;;6228962;23;20166;-89
2021/07/13 04:25:18;;;;;;;9.57;4.20;;;;;;;;;;6228016;23;20171;-90
2021/07/13 04:28:23;;;;;;;7.50;4.00;;;;;;;;;;6229292;23;20163;-90
2021/07/13 04:31:28;;;;;;;6.68;3.85;;;;;;;;;;6209412;23;20166;-88
2021/07/13 04:34:34;;;;;;;7.75;4.00;;;;;;;;;;6227505;23;20245;-88
2021/07/13 04:37:40;;;;;;;6.28;3.78;;;;;;;;;;6229450;23;20166;-89
2021/07/13 04:40:46;;;;;;;10.70;4.07;;;;;;;;;;6246486;23;20171;-88
2021/07/13 04:43:51;;;;;;;5.35;3.75;;;;;;;;;;6228649;23;20198;-87
2021/07/13 04:47:00;;;;;;;8.13;3.92;;;;;;;;;;6226176;23;20166;-87
2021/07/13 04:50:07;;;;;;;8.60;4.13;;;;;;;;;;6228709;23;20163;-90
2021/07/13 04:53:12;;;;;;;7.60;4.05;;;;;;;;;;6229017;23;20191;-89
2021/07/13 04:56:17;;;;;;;9.85;4.03;;;;;;;;;;6229651;23;20163;-90
2021/07/13 04:59:22;;;;;;;7.30;3.50;;;;;;;;;;6231373;23;20207;-87
2021/07/13 05:02:27;;;;;;;10.55;3.88;;;;;;;;;;6230977;23;20170;-90
2021/07/13 05:05:34;;;;;;;5.32;3.15;;;;;;;;;;6230794;23;20191;-89
2021/07/13 05:08:42;;;;;;;5.82;3.33;;;;;;;;;;6229953;23;20191;-89
2021/07/13 05:11:47;;;;;;;8.88;3.67;;;;;;;;;;6228770;23;20168;-88
2021/07/13 05:14:52;;;;;;;6.03;3.58;;;;;;;;;;6228801;23;20170;-89
2021/07/13 05:17:58;;;;;;;8.48;3.95;;;;;;;;;;6231004;23;20171;-88
2021/07/13 05:21:05;;;;;;;8.23;3.35;;;;;;;;;;6230211;23;20167;-90
2021/07/13 05:24:11;;;;;;;8.88;3.40;;;;;;;;;;6230812;23;20199;-89
2021/07/13 05:27:17;;;;;;;8.45;3.67;;;;;;;;;;6230338;23;20242;-88
2021/07/13 05:30:23;;;;;;;6.18;3.13;;;;;;;;;;6232887;23;20178;-88
2021/07/13 05:33:28;;;;;;;6.03;3.50;;;;;;;;;;6229785;23;20167;-89
2021/07/13 05:36:35;;;;;;;9.75;3.42;;;;;;;;;;6231345;23;20178;-89
2021/07/13 05:39:40;;;;;;;9.13;3.55;;;;;;;;;;6230311;23;20171;-87
2021/07/13 05:42:46;;;;;;;9.98;3.78;;;;;;;;;;6230264;23;20168;-89
2021/07/13 05:45:51;;;;;;;9.10;3.47;;;;;;;;;;6230725;23;20254;-87
2021/07/13 05:48:56;;;;;;;8.10;4.00;;;;;;;;;;6229738;23;20162;-87
2021/07/13 05:52:02;;;;;;;7.28;3.63;;;;;;;;;;6231216;23;20240;-89
2021/07/13 05:55:08;;;;;;;7.32;3.92;;;;;;;;;;6231635;23;20163;-90
2021/07/13 05:58:14;;;;;;;9.38;4.07;;;;;;;;;;6230897;23;20211;-88
2021/07/13 06:01:19;;;;;;;8.27;3.90;;;;;;;;;;6230046;23;20542;-89
2021/07/13 06:04:24;;;;;;;8.43;3.80;;;;;;;;;;6232387;23;20688;-89
2021/07/13 06:07:31;;;;;;;8.23;4.15;;;;;;;;;;6230135;23;20171;-90
2021/07/13 06:10:37;;;;;;;11.57;4.40;;;;;;;;;;6231101;23;20187;-89
2021/07/13 06:13:43;;;;;;;7.80;3.78;;;;;;;;;;6228134;23;20183;-90
2021/07/13 06:16:48;;;;;;;13.63;3.80;;;;;;;;;;6229581;23;20259;-90
2021/07/13 06:19:53;;;;;;;8.10;3.58;;;;;;;;;;6228985;23;20160;-90
2021/07/13 06:23:00;;;;;;;5.97;3.40;;;;;;;;;;6230041;23;20171;-90
2021/07/13 06:26:05;;;;;;;7.43;3.78;;;;;;;;;;6232399;23;20171;-89
2021/07/13 06:29:10;;;;;;;7.55;3.47;;;;;;;;;;6229611;23;20195;-89
2021/07/13 06:32:15;;;;;;;8.32;3.25;;;;;;;;;;6232138;23;20205;-89
2021/07/13 06:35:29;;;;;;;7.72;3.63;;;;;;;;;;6231083;23;20167;-90
2021/07/13 06:38:38;;;;;;;6.53;3.60;;;;;;;;;;6232223;23;20167;-90
2021/07/13 06:41:43;;;;;;;6.38;3.10;;;;;;;;;;6233741;23;20174;-89
2021/07/13 06:44:48;;;;;;;6.38;3.67;;;;;;;;;;6228671;23;20262;-90
2021/07/13 06:47:54;;;;;;;5.75;3.33;;;;;;;;;;6230018;23;20155;-89
2021/07/13 06:51:00;;;;;;;4.78;3.38;;;;;;;;;;6231925;23;20160;-90
2021/07/13 06:54:06;;;;;;;7.13;3.60;;;;;;;;;;6232090;23;20186;-91
2021/07/13 06:57:11;;;;;;;4.93;3.20;;;;;;;;;;6231173;23;20253;-90
2021/07/13 07:00:16;;;;;;;5.40;3.53;;;;;;;;;;6231006;23;20163;-90
2021/07/13 07:03:22;;;;;;;5.97;3.35;;;;;;;;;;6232441;23;20219;-90
2021/07/13 07:06:29;;;;;;;4.20;3.13;;;;;;;;;;6230860;23;20695;-89
2021/07/13 07:09:35;;;;;;;7.45;3.35;;;;;;;;;;6230979;23;20168;-92
2021/07/13 07:12:41;;;;;;;5.18;3.47;;;;;;;;;;6229807;23;20246;-91
2021/07/13 07:15:46;;;;;;;5.15;3.28;;;;;;;;;;6230172;23;20191;-91
2021/07/13 07:18:52;;;;;;;5.88;3.38;;;;;;;;;;6228246;23;20174;-90
2021/07/13 07:21:57;;;;;;;9.25;3.65;;;;;;;;;;6230424;23;20167;-91
2021/07/13 07:25:04;;;;;;;5.75;3.60;;;;;;;;;;6230917;23;20199;-89
2021/07/13 07:28:11;;;;;;;6.93;3.60;;;;;;;;;;6230098;23;20162;-90
2021/07/13 07:31:19;;;;;;;5.07;3.67;;;;;;;;;;6249504;23;20159;-88
2021/07/13 07:34:24;;;;;;;11.32;4.20;;;;;;;;;;6231236;23;20155;-89
2021/07/13 07:37:29;;;;;;;8.77;4.00;;;;;;;;;;6230763;23;20159;-89
2021/07/13 07:40:36;;;;;;;8.27;3.90;;;;;;;;;;6230725;23;20171;-90
2021/07/13 07:43:41;;;;;;;5.78;3.92;;;;;;;;;;6229914;23;20224;-90
2021/07/13 07:46:46;;;;;;;4.20;3.67;;;;;;;;;;6229775;23;20242;-90
2021/07/13 07:49:51;;;;;;;8.55;3.90;;;;;;;;;;6246446;23;20167;-89
2021/07/13 07:52:56;;;;;;;7.07;3.90;;;;;;;;;;6231382;23;20155;-92
2021/07/13 07:56:06;;;;;;;8.55;3.83;;;;;;;;;;6230650;23;20195;-92
2021/07/13 07:59:11;;;;;;;7.63;3.78;;;;;;;;;;6250162;23;20170;-89
2021/07/13 08:02:16;;;;;;;6.30;4.18;;;;;;;;;;6230880;23;20170;-90
2021/07/13 08:05:26;;;;;;;7.88;4.43;;;;;;;;;;6231632;23;20194;-90
2021/07/13 08:08:31;;;;;;;8.88;4.28;;;;;;;;;;6234652;23;20162;-90
2021/07/13 08:11:39;;;;;;;10.30;4.47;;;;;;;;;;6229439;23;20605;-91
2021/07/13 11:19:35;;;;;;;8.07;5.70;;;;;;;;;;6153102;22;20306;-88
2021/07/13 11:22:43;;;;;;;11.68;6.03;;;;;;;;;;6203493;23;20192;-90
2021/07/13 11:26:03;;;;;;;11.50;6.40;;;;;;;;;;6198461;23;20662;-90
2021/07/13 11:29:09;;;;;;;11.35;6.18;;;;;;;;;;6200214;23;20171;-91
2021/07/13 11:32:41;;;;;;;16.35;6.35;;;;;;;;;;6199564;23;20163;-89
2021/07/13 11:35:54;;;;;;;16.73;6.97;;;;;;;;;;6198499;23;20219;-90
2021/07/13 11:39:01;;;;;;;14.93;6.30;;;;;;;;;;6198253;23;20228;-88
2021/07/13 11:42:08;;;;;;;11.13;6.65;;;;;;;;;;6197790;23;20599;-90
2021/07/13 11:45:14;;;;;;;16.58;7.18;;;;;;;;;;6196251;23;20195;-90
2021/07/13 11:48:24;;;;;;;19.25;6.60;;;;;;;;;;6199728;23;20163;-91
2021/07/13 11:51:33;;;;;;;14.20;6.80;;;;;;;;;;6197723;23;20179;-90
2021/07/13 11:54:39;;;;;;;14.45;6.75;;;;;;;;;;6197617;23;20179;-91
2021/07/13 11:57:50;;;;;;;13.80;7.05;;;;;;;;;;6198899;23;20172;-90
2021/07/13 12:00:56;;;;;;;13.30;7.40;;;;;;;;;;6199203;23;20163;-90
2021/07/13 12:04:08;;;;;;;12.05;7.30;;;;;;;;;;6200514;23;20179;-91
2021/07/13 12:07:16;;;;;;;13.65;7.05;;;;;;;;;;6198564;23;20176;-89
2021/07/13 12:10:21;;;;;;;15.75;6.95;;;;;;;;;;6202002;23;20256;-89
2021/07/13 12:13:26;;;;;;;16.88;7.00;;;;;;;;;;6198608;23;20171;-89
2021/07/13 12:16:32;;;;;;;12.65;6.80;;;;;;;;;;6200079;23;20547;-90
2021/07/13 12:19:38;;;;;;;16.05;7.18;;;;;;;;;;6202592;23;20175;-90
2021/07/13 12:22:49;;;;;;;15.40;7.15;;;;;;;;;;6201296;23;20218;-92
2021/07/13 12:25:55;;;;;;;15.00;7.03;;;;;;;;;;6202864;23;20194;-91
2021/07/13 12:29:11;;;;;;;14.52;7.38;;;;;;;;;;6198886;23;20167;-92
2021/07/13 12:32:18;;;;;;;9.85;7.13;;;;;;;;;;6200693;23;20171;-89
2021/07/13 12:35:29;;;;;;;13.95;7.80;;;;;;;;;;6201027;23;20386;-90
2021/07/13 12:38:37;;;;;;;13.57;7.10;;;;;;;;;;6199301;23;20167;-91
2021/07/13 12:41:44;;;;;;;15.73;7.72;;;;;;;;;;6199609;23;20207;-90
2021/07/13 12:44:51;;;;;;;10.82;7.80;;;;;;;;;;6200934;23;20182;-90
2021/07/13 12:48:01;;;;;;;13.55;7.18;;;;;;;;;;6202381;23;20162;-91
2021/07/13 12:51:07;;;;;;;9.93;7.38;;;;;;;;;;6199812;23;20235;-88
2021/07/13 12:54:14;;;;;;;14.60;7.45;;;;;;;;;;6198864;22;20171;-90
2021/07/13 12:57:30;;;;;;;15.80;7.75;;;;;;;;;;6200229;23;20218;-92
2021/07/13 13:00:35;;;;;;;21.63;8.55;;;;;;;;;;6200869;23;20204;-88
2021/07/13 13:03:43;;;;;;;13.90;7.72;;;;;;;;;;6199481;23;20172;-87
2021/07/13 13:06:48;;;;;;;14.60;8.23;;;;;;;;;;6196671;23;20167;-88
2021/07/13 13:09:55;;;;;;;14.70;7.53;;;;;;;;;;6197064;23;20299;-87
2021/07/13 13:13:00;;;;;;;15.35;7.65;;;;;;;;;;6196161;23;20240;-88
2021/07/13 13:16:06;;;;;;;17.23;7.57;;;;;;;;;;6197166;23;20152;-89
2021/07/13 13:19:12;;;;;;;11.10;6.60;;;;;;;;;;6198241;23;20675;-88
2021/07/13 13:22:17;;;;;;;13.82;7.05;;;;;;;;;;6202586;23;20176;-88
2021/07/13 13:25:25;;;;;;;17.08;7.47;;;;;;;;;;6201348;23;20191;-88
2021/07/13 13:28:30;;;;;;;20.50;7.43;;;;;;;;;;6200055;23;20224;-90
2021/07/13 13:31:35;;;;;;;19.23;6.95;;;;;;;;;;6200529;23;20168;-87
2021/07/13 13:34:40;;;;;;;23.05;6.82;;;;;;;;;;6201377;23;20605;-89
2021/07/13 13:38:06;;;;;;;13.90;6.43;;;;;;;;;;6199784;23;20173;-90
2021/07/13 13:41:13;;;;;;;8.82;5.82;;;;;;;;;;6199291;23;20167;-90
2021/07/13 13:44:19;;;;;;;14.60;6.18;;;;;;;;;;6198928;23;20204;-91
2021/07/13 13:47:24;;;;;;;14.45;6.15;;;;;;;;;;6200781;23;20188;-89
2021/07/13 13:50:30;;;;;;;9.80;5.28;;;;;;;;;;6199288;23;20183;-89
2021/07/13 13:53:35;;;;;;;11.25;5.35;;;;;;;;;;6201503;23;20168;-89
2021/07/13 13:56:41;;;;;;;11.88;5.10;;;;;;;;;;6201637;23;20291;-89
2021/07/13 13:59:47;;;;;;;8.48;5.35;;;;;;;;;;6182199;23;20208;-89
2021/07/13 14:02:58;;;;;;;14.90;4.88;;;;;;;;;;6199895;23;20184;-88
2021/07/13 14:06:04;;;;;;;12.70;5.10;;;;;;;;;;6201954;23;20247;-88
2021/07/13 14:09:09;;;;;;;11.45;5.35;;;;;;;;;;6201592;23;20172;-89
2021/07/13 14:12:17;;;;;;;10.40;4.78;;;;;;;;;;6202182;23;20171;-89
2021/07/13 14:15:24;;;;;;;12.15;4.10;;;;;;;;;;6202414;23;20192;-89
2021/07/13 14:18:30;;;;;;;5.93;3.17;;;;;;;;;;6200731;23;20151;-87
2021/07/13 14:21:35;;;;;;;6.78;2.85;;;;;;;;;;6202332;23;20206;-88
2021/07/13 14:24:40;;;;;;;5.72;2.50;;;;;;;;;;6219538;23;20248;-88
2021/07/13 14:27:50;;;;;;;6.32;2.40;;;;;;;;;;6200127;23;20168;-88
2021/07/13 14:30:55;;;;;;;9.02;2.83;;;;;;;;;;6200233;23;20164;-88
2021/07/13 14:34:00;;;;;;;9.60;2.55;;;;;;;;;;6199183;23;20172;-87
2021/07/13 14:37:06;;;;;;;3.17;2.13;;;;;;;;;;6209385;23;20147;-86
2021/07/13 14:40:13;;;;;;;7.95;2.30;;;;;;;;;;6201157;23;20380;-87
2021/07/13 14:43:23;;;;;;;11.00;1.67;;;;;;;;;;6199585;23;20620;-89
2021/07/13 14:46:30;;;;;;;2.88;1.83;;;;;;;;;;6201803;23;20257;-88
2021/07/13 14:49:35;;;;;;;7.45;1.70;;;;;;;;;;6201009;23;20191;-87
2021/07/13 14:52:40;;;;;;;4.45;1.70;;;;;;;;;;6198783;23;20175;-88
2021/07/13 14:55:46;;;;;;;5.20;1.75;;;;;;;;;;6200386;23;20227;-89
2021/07/13 14:58:52;;;;;;;3.75;1.73;;;;;;;;;;6198869;23;20215;-90
2021/07/13 15:02:01;;;;;;;8.98;2.00;;;;;;;;;;6198846;23;20187;-88
2021/07/13 15:05:08;;;;;;;8.95;1.80;;;;;;;;;;6198738;23;20196;-89
2021/07/13 15:08:14;;;;;;;5.57;1.65;;;;;;;;;;6199296;23;20164;-87
2021/07/13 15:11:18;;;;;;;4.65;1.70;;;;;;;;;;6198405;23;20171;-88
2021/07/13 15:14:25;;;;;;;7.57;2.17;;;;;;;;;;6199463;23;20187;-89
2021/07/13 15:17:30;;;;;;;6.45;1.73;;;;;;;;;;6199747;23;20229;-91
2021/07/13 15:20:36;;;;;;;3.90;1.95;;;;;;;;;;6196382;23;20239;-89
2021/07/13 15:23:41;;;;;;;4.10;1.85;;;;;;;;;;6198491;23;20223;-88
2021/07/13 15:26:48;;;;;;;5.82;2.00;;;;;;;;;;6199513;23;20171;-90
2021/07/13 15:29:56;;;;;;;2.97;1.80;;;;;;;;;;6199874;23;20401;-91
2021/07/13 15:33:12;;;;;;;9.38;1.80;;;;;;;;;;6200982;23;20167;-89
2021/07/13 15:36:19;;;;;;;4.53;2.10;;;;;;;;;;6206345;23;20196;-89
2021/07/13 15:39:25;;;;;;;2.50;1.60;;;;;;;;;;6204254;23;20215;-88
2021/07/13 15:42:31;;;;;;;9.95;1.42;;;;;;;;;;6201013;23;20240;-89
2021/07/13 15:45:38;;;;;;;2.22;1.35;;;;;;;;;;6199782;23;20248;-87
2021/07/13 15:48:43;;;;;;;2.70;1.30;;;;;;;;;;6216192;22;20168;-89
2021/07/13 15:51:48;;;;;;;2.42;1.25;;;;;;;;;;6201732;23;20160;-88
2021/07/13 15:54:54;;;;;;;3.50;1.20;;;;;;;;;;6199898;23;20164;-92
2021/07/13 15:58:03;;;;;;;1.52;1.10;;;;;;;;;;6199301;23;20151;-89
2021/07/13 16:01:10;;;;;;;3.17;1.10;;;;;;;;;;6199897;23;20152;-89
2021/07/13 16:04:16;;;;;;;2.47;1.10;;;;;;;;;;6200924;23;20167;-90
2021/07/13 16:07:21;;;;;;;2.80;0.98;;;;;;;;;;6200577;23;20243;-91
2021/07/13 16:10:27;;;;;;;2.08;0.80;;;;;;;;;;6201811;23;20196;-91
2021/07/13 16:13:32;;;;;;;2.80;0.85;;;;;;;;;;6201516;23;20172;-90
2021/07/13 16:16:38;;;;;;;7.53;0.88;;;;;;;;;;6200964;23;20220;-91
2021/07/13 16:19:44;;;;;;;2.60;0.82;;;;;;;;;;6202861;23;20176;-90
2021/07/13 16:22:49;;;;;;;1.80;1.08;;;;;;;;;;6201655;23;20168;-89
2021/07/13 16:25:55;;;;;;;2.17;0.70;;;;;;;;;;6204341;23;20207;-89
2021/07/13 16:29:01;;;;;;;0.77;0.60;;;;;;;;;;6203487;23;20164;-91
2021/07/13 16:32:11;;;;;;;1.98;0.50;;;;;;;;;;6200358;23;20256;-90
2021/07/13 16:35:16;;;;;;;5.72;1.15;;;;;;;;;;6202069;23;20145;-91
2021/07/13 16:38:22;;;;;;;2.42;0.60;;;;;;;;;;6202261;23;20159;-93
2021/07/13 16:41:27;;;;;;;1.98;0.80;;;;;;;;;;6204468;23;20156;-92
2021/07/13 16:44:35;;;;;;;2.60;0.77;;;;;;;;;;6203343;23;20175;-89
2021/07/13 16:47:41;;;;;;;1.00;0.50;;;;;;;;;;6202447;23;20172;-91
2021/07/13 16:50:51;;;;;;;0.70;0.63;;;;;;;;;;6204862;23;20167;-90
2021/07/13 16:53:56;;;;;;;0.50;0.40;;;;;;;;;;6203248;23;20507;-90
2021/07/13 16:57:01;;;;;;;1.95;0.65;;;;;;;;;;6204536;23;20171;-90
2021/07/13 17:00:08;;;;;;;1.30;0.32;;;;;;;;;;6205307;23;20243;-90
2021/07/13 17:03:18;;;;;;;4.70;0.68;;;;;;;;;;6208492;23;20232;-92
2021/07/13 17:06:24;;;;;;;0.60;0.40;;;;;;;;;;6207614;23;20268;-91
2021/07/13 17:09:29;;;;;;;1.67;0.50;;;;;;;;;;6205813;23;20167;-93
2021/07/13 17:12:35;;;;;;;3.25;0.50;;;;;;;;;;6206929;23;20159;-92
2021/07/13 17:15:50;;;;;;;1.98;1.00;;;;;;;;;;6204702;23;20184;-91
2021/07/13 17:18:57;;;;;;;1.10;0.50;;;;;;;;;;6204767;23;20216;-92
2021/07/13 17:22:04;;;;;;;1.40;0.60;;;;;;;;;;6207736;23;20542;-91
2021/07/13 17:25:13;;;;;;;2.42;1.15;;;;;;;;;;6207882;23;20167;-91
2021/07/13 17:28:18;;;;;;;2.05;0.40;;;;;;;;;;6205620;23;20216;-90
2021/07/13 17:31:23;;;;;;;1.38;0.45;;;;;;;;;;6205162;23;20230;-92
2021/07/13 17:34:29;;;;;;;2.20;0.57;;;;;;;;;;6203977;23;20175;-91
2021/07/13 17:37:34;;;;;;;0.30;0.30;;;;;;;;;;6204943;23;20168;-90
2021/07/13 17:40:42;;;;;;;1.77;0.40;;;;;;;;;;6206160;23;20155;-90
2021/07/13 17:43:50;;;;;;;0.40;0.40;;;;;;;;;;6205860;23;20163;-90
2021/07/13 17:46:55;;;;;;;0.55;0.43;;;;;;;;;;6204728;23;20199;-89
2021/07/13 17:50:07;;;;;;;0.50;0.50;;;;;;;;;;6205816;23;20206;-91
2021/07/13 17:53:17;;;;;;;4.55;1.65;;;;;;;;;;6206300;23;20167;-92
2021/07/13 17:56:21;;;;;;;1.20;0.70;;;;;;;;;;6206510;23;20215;-90
2021/07/13 17:59:27;;;;;;;1.60;0.70;;;;;;;;;;6205521;23;20221;-90
2021/07/13 18:02:33;;;;;;;0.35;0.35;;;;;;;;;;6207393;23;20164;-88
2021/07/13 18:05:40;;;;;;;0.35;0.32;;;;;;;;;;6202805;23;20178;-88
2021/07/13 18:08:45;;;;;;;2.55;0.43;;;;;;;;;;6203794;23;20183;-90
2021/07/13 18:11:51;;;;;;;2.30;0.50;;;;;;;;;;6202903;23;20160;-90
2021/07/13 18:14:56;;;;;;;0.98;0.50;;;;;;;;;;6202288;23;20171;-90
2021/07/13 18:18:02;;;;;;;1.55;0.60;;;;;;;;;;6219354;23;20211;-89
2021/07/13 18:21:11;;;;;;;3.22;0.50;;;;;;;;;;6201522;23;20195;-91
2021/07/13 18:24:15;;;;;;;1.00;0.40;;;;;;;;;;6203122;23;20187;-89
2021/07/13 18:27:21;;;;;;;0.50;0.50;;;;;;;;;;6203218;23;20191;-91
2021/07/13 18:30:26;;;;;;;1.10;0.80;;;;;;;;;;6202192;23;20167;-90
2021/07/13 18:33:32;;;;;;;1.63;0.50;;;;;;;;;;6201950;23;20172;-91
2021/07/13 18:36:39;;;;;;;1.02;0.60;;;;;;;;;;6202109;23;20187;-89
2021/07/13 18:39:46;;;;;;;0.63;0.50;;;;;;;;;;6203692;23;20219;-90
2021/07/13 18:42:51;;;;;;;2.10;1.13;;;;;;;;;;6203120;23;20276;-90
2021/07/13 18:45:57;;;;;;;2.53;0.80;;;;;;;;;;6204109;23;20172;-90
2021/07/13 18:49:05;;;;;;;1.65;0.50;;;;;;;;;;6204954;23;20171;-92
2021/07/13 18:52:13;;;;;;;2.72;0.47;;;;;;;;;;6203186;23;20184;-91
2021/07/13 18:55:19;;;;;;;2.63;0.52;;;;;;;;;;6203991;23;20167;-91
2021/07/13 18:58:26;;;;;;;3.88;0.65;;;;;;;;;;6203265;23;20219;-88
2021/07/13 19:01:33;;;;;;;2.58;0.50;;;;;;;;;;6202979;23;20171;-91
2021/07/13 19:04:40;;;;;;;2.70;0.75;;;;;;;;;;6204694;23;20287;-89
2021/07/13 19:07:48;;;;;;;1.58;0.70;;;;;;;;;;6207333;23;20230;-88
2021/07/13 19:10:54;;;;;;;2.28;0.80;;;;;;;;;;6205937;23;20216;-91
2021/07/13 19:14:06;;;;;;;3.08;0.80;;;;;;;;;;6204229;23;20171;-89
2021/07/13 19:17:11;;;;;;;4.65;0.80;;;;;;;;;;6204780;23;20200;-91
2021/07/13 19:20:17;;;;;;;1.63;0.60;;;;;;;;;;6205335;23;20200;-89
2021/07/13 19:23:24;;;;;;;1.92;0.50;;;;;;;;;;6205550;23;20219;-89
2021/07/13 19:26:30;;;;;;;3.65;0.60;;;;;;;;;;6204514;22;20331;-91
2021/07/13 19:29:35;;;;;;;4.13;1.80;;;;;;;;;;6204192;23;20163;-89
2021/07/13 19:39:46;;;;;;;7.43;0.65;;;;;;;;;;6205641;23;20185;-91
2021/07/13 19:42:52;;;;;;;4.35;1.00;;;;;;;;;;6202532;23;20164;-91
2021/07/13 19:45:58;;;;;;;1.83;0.52;;;;;;;;;;6202568;23;20176;-90
2021/07/13 19:49:04;;;;;;;0.80;0.50;;;;;;;;;;6202761;23;20171;-90
2021/07/13 19:52:10;;;;;;;1.42;0.60;;;;;;;;;;6220107;23;20212;-88
2021/07/13 19:55:16;;;;;;;3.35;0.70;;;;;;;;;;6200734;23;20255;-91
2021/07/13 19:58:21;;;;;;;1.25;0.70;;;;;;;;;;6201012;23;20167;-88
2021/07/13 20:01:26;;;;;;;3.08;0.80;;;;;;;;;;6199422;23;20194;-90
2021/07/13 20:04:31;;;;;;;2.67;0.80;;;;;;;;;;6200037;23;20168;-90
2021/07/13 20:07:38;;;;;;;1.52;0.73;;;;;;;;;;6200434;23;20203;-90
2021/07/13 20:10:44;;;;;;;1.65;0.80;;;;;;;;;;6200074;23;20504;-90
2021/07/13 20:13:50;;;;;;;1.63;0.90;;;;;;;;;;6196611;23;20485;-91
2021/07/13 20:16:56;;;;;;;1.67;0.80;;;;;;;;;;6198905;23;20217;-91
2021/07/13 20:20:01;;;;;;;3.70;0.88;;;;;;;;;;6199258;23;20180;-88
2021/07/13 20:23:06;;;;;;;4.55;2.35;;;;;;;;;;6197102;23;20191;-89
2021/07/13 20:26:13;;;;;;;5.95;2.15;;;;;;;;;;6197077;23;20172;-89
2021/07/13 20:29:18;;;;;;;3.72;2.30;;;;;;;;;;6198595;23;20207;-89
2021/07/13 20:32:23;;;;;;;2.92;1.83;;;;;;;;;;6200697;23;20156;-90
2021/07/13 20:35:28;;;;;;;2.75;1.83;;;;;;;;;;6198954;23;20167;-89
2021/07/13 20:38:38;;;;;;;2.75;1.98;;;;;;;;;;6196071;23;20175;-90
2021/07/13 20:41:44;;;;;;;4.53;2.13;;;;;;;;;;6198177;23;20200;-90
2021/07/13 20:44:49;;;;;;;4.60;2.00;;;;;;;;;;6198661;23;20227;-89
2021/07/13 20:47:55;;;;;;;5.30;2.20;;;;;;;;;;6198611;23;20196;-89
2021/07/13 20:51:01;;;;;;;7.40;2.28;;;;;;;;;;6198917;23;20152;-90
2021/07/13 20:54:06;;;;;;;4.15;2.05;;;;;;;;;;6198079;23;20216;-89
2021/07/13 20:57:13;;;;;;;4.43;1.92;;;;;;;;;;6199110;23;20159;-89
2021/07/13 21:00:20;;;;;;;4.18;2.05;;;;;;;;;;6199141;23;20172;-91
2021/07/13 21:33:16;;;;;;;4.50;2.03;;;;;;;;;;6199917;23;20168;-90
2021/07/13 21:36:21;;;;;;;6.57;2.45;;;;;;;;;;6198855;23;20280;-89
2021/07/13 21:39:27;;;;;;;5.60;2.40;;;;;;;;;;6199470;23;20168;-89
2021/07/13 21:42:32;;;;;;;4.80;2.53;;;;;;;;;;6199204;23;20219;-89
2021/07/13 21:45:38;;;;;;;4.95;2.45;;;;;;;;;;6199491;23;20176;-90
2021/07/13 21:48:44;;;;;;;5.15;2.67;;;;;;;;;;6200670;23;20239;-88
2021/07/13 21:51:49;;;;;;;5.88;2.70;;;;;;;;;;6197928;23;20171;-90
2021/07/13 21:54:55;;;;;;;8.93;2.83;;;;;;;;;;6198259;23;20178;-90
2021/07/13 21:58:00;;;;;;;5.50;3.30;;;;;;;;;;6197470;23;20187;-89
2021/07/13 22:01:05;;;;;;;6.72;3.05;;;;;;;;;;6199879;23;20167;-88
2021/07/13 22:04:12;;;;;;;4.90;2.22;;;;;;;;;;6199354;23;20168;-90
2021/07/13 22:07:17;;;;;;;7.30;2.97;;;;;;;;;;6201923;23;20243;-87
2021/07/13 22:10:22;;;;;;;5.28;2.70;;;;;;;;;;6200347;23;20252;-89
2021/07/13 22:13:28;;;;;;;5.43;3.28;;;;;;;;;;6200382;23;20171;-89
2021/07/13 22:16:33;;;;;;;3.70;2.72;;;;;;;;;;6200447;23;20171;-88